Time;durP1;ratioP1;P1;durP2;ratioP2;P2;SDS_P1;SDS_P2;PMS_P1;PMS_P2;Temp;Humidity;BMP_temperature;BMP_pressure;BME280_temperature;BME280_humidity;BME280_pressure;Samples;Min_cycle;Max_cycle;Signal;HPM_P1;HPM_P2
2022/09/16 00:00:55;;;;;;;0.60;0.60;;;16.00;78.90;;;15.96;65.24;94231.81;5001024;28;20698;-80
2022/09/16 00:03:22;;;;;;;0.60;0.60;;;16.00;78.90;;;15.93;65.59;94232.28;4970060;28;20216;-81
2022/09/16 00:05:52;;;;;;;0.50;0.50;;;15.90;78.80;;;15.93;65.36;94237.56;5020171;28;20576;-81
2022/09/16 00:08:21;;;;;;;0.50;0.50;;;15.90;78.80;;;15.90;65.34;94238.84;4987504;28;20205;-79
2022/09/16 00:10:48;;;;;;;0.50;0.50;;;15.90;78.80;;;15.87;64.95;94239.34;4979118;28;20201;-79
2022/09/16 00:13:16;;;;;;;0.60;0.60;;;15.90;78.80;;;15.79;65.01;94234.44;5010660;28;20224;-81
2022/09/16 00:15:45;;;;;;;0.50;0.50;;;15.80;78.70;;;15.74;65.00;94239.66;5001423;28;20263;-81
2022/09/16 00:18:13;;;;;;;0.70;0.70;;;15.80;78.70;;;15.65;65.25;94249.81;5030316;28;20701;-80
2022/09/16 00:20:50;;;;;;;0.60;0.60;;;15.70;78.70;;;15.54;64.87;94246.22;5007713;28;20720;-80
2022/09/16 00:23:18;;;;;;;0.80;0.80;;;15.60;78.60;;;15.44;64.70;94249.47;5011462;28;20224;-81
2022/09/16 00:25:54;;;;;;;0.60;0.60;;;15.50;78.50;;;15.34;64.72;94241.38;5020634;28;20254;-80
2022/09/16 00:28:22;;;;;;;0.70;0.70;;;15.40;78.40;;;15.26;65.08;94242.56;5027942;28;20206;-81
2022/09/16 00:30:50;;;;;;;0.60;0.60;;;15.30;78.40;;;15.15;65.31;94246.84;4980813;28;20201;-81
2022/09/16 00:33:19;;;;;;;0.80;0.80;;;15.20;78.30;;;15.07;65.24;94251.72;5011787;28;20209;-80
2022/09/16 00:35:46;;;;;;;0.45;0.45;;;15.20;78.30;;;14.98;65.41;94249.44;5012068;28;20200;-80
2022/09/16 00:38:13;;;;;;;0.60;0.60;;;15.00;78.10;;;14.89;65.05;94261.41;5013195;28;20283;-81
2022/09/16 00:40:49;;;;;;;0.65;0.65;;;14.90;78.30;;;14.83;64.80;94257.06;5010857;28;20276;-81
2022/09/16 00:43:18;;;;;;;0.57;0.57;;;14.90;78.70;;;14.76;65.18;94251.13;4996935;28;20216;-80
2022/09/16 00:45:55;;;;;;;0.60;0.60;;;14.80;78.60;;;14.67;65.03;94256.78;5010183;28;20207;-80
2022/09/16 00:48:25;;;;;;;0.60;0.60;;;14.70;78.70;;;14.61;65.36;94257.69;4995481;28;20201;-81
2022/09/16 00:51:05;;;;;;;0.60;0.60;;;14.60;78.70;;;14.54;65.13;94276.28;5009800;28;20580;-81
2022/09/16 00:53:39;;;;;;;0.80;0.80;;;14.50;78.80;;;14.49;65.33;94272.72;5011716;28;20212;-80
2022/09/16 00:56:12;;;;;;;0.60;0.60;;;14.50;78.80;;;14.42;65.17;94283.41;5026347;28;20189;-80
2022/09/16 00:58:46;;;;;;;0.70;0.70;;;14.40;78.80;;;14.35;65.43;94274.81;5010661;28;20582;-81
2022/09/16 01:01:14;;;;;;;0.60;0.60;;;14.30;78.90;;;14.30;65.44;94278.13;5005114;28;20234;-80
2022/09/16 01:03:51;;;;;;;0.70;0.70;;;14.30;78.80;;;14.25;65.38;94273.53;5013182;28;20193;-79
2022/09/16 01:06:19;;;;;;;0.60;0.60;;;14.20;78.90;;;14.18;65.46;94269.44;4995610;28;20228;-80
2022/09/16 01:08:49;;;;;;;0.70;0.70;;;14.20;78.90;;;14.13;65.34;94272.75;5014363;28;20612;-81
2022/09/16 01:11:17;;;;;;;0.63;0.63;;;14.20;78.90;;;14.08;65.42;94280.56;5028095;28;20232;-80
2022/09/16 01:13:46;;;;;;;0.70;0.70;;;14.00;78.80;;;13.98;65.44;94270.59;5008244;28;20192;-81
2022/09/16 01:16:25;;;;;;;0.80;0.80;;;14.00;79.80;;;13.97;65.54;94268.97;5013822;28;20279;-81
2022/09/16 01:19:18;;;;;;;0.70;0.70;;;13.90;79.00;;;13.91;65.64;94267.25;5022489;28;20774;-81
2022/09/16 01:22:14;;;;;;;0.70;0.70;;;13.90;79.10;;;13.82;65.51;94272.06;5016005;28;20646;-80
2022/09/16 01:25:18;;;;;;;0.50;0.50;;;13.90;79.10;;;13.78;65.40;94276.19;5030729;28;20200;-81
2022/09/16 01:28:14;;;;;;;0.70;0.70;;;13.80;79.10;;;13.70;65.57;94279.94;5026768;28;20220;-80
2022/09/16 01:31:01;;;;;;;0.70;0.70;;;13.70;79.10;;;13.68;65.29;94270.66;5016697;28;20209;-80
2022/09/16 01:34:02;;;;;;;0.70;0.70;;;13.60;78.90;;;13.58;65.44;94273.84;5023124;28;20215;-81
2022/09/16 01:37:16;;;;;;;0.70;0.70;;;13.60;79.10;;;13.51;65.36;94276.59;5030035;28;20663;-80
2022/09/16 01:40:01;;;;;;;0.60;0.60;;;13.50;79.10;;;13.46;65.30;94284.34;5013551;28;20220;-79
2022/09/16 01:42:37;;;;;;;0.70;0.70;;;13.40;79.00;;;13.41;65.54;94292.13;5025568;28;20695;-80
2022/09/16 01:45:17;;;;;;;0.70;0.70;;;13.40;79.00;;;13.37;65.77;94293.59;5022153;28;20200;-81
2022/09/16 01:47:44;;;;;;;0.60;0.60;;;13.30;79.00;;;13.34;65.87;94294.03;5019402;28;20215;-80
2022/09/16 01:50:29;;;;;;;0.60;0.60;;;13.30;79.20;;;13.32;65.92;94291.63;5013679;28;20197;-80
2022/09/16 01:53:19;;;;;;;0.60;0.60;;;13.20;79.40;;;13.28;65.96;94293.09;5026598;28;20724;-81
2022/09/16 01:55:54;;;;;;;0.80;0.80;;;13.20;79.60;;;13.26;66.20;94290.69;5011142;28;20219;-80
2022/09/16 01:58:25;;;;;;;0.70;0.70;;;13.20;79.60;;;13.21;65.83;94285.28;5020980;28;20194;-80
2022/09/16 02:01:00;;;;;;;0.70;0.70;;;13.20;79.50;;;13.23;66.16;94290.31;5027840;28;20231;-81
2022/09/16 02:03:32;;;;;;;0.70;0.70;;;13.20;79.60;;;13.19;65.78;94292.59;5009467;28;20192;-80
2022/09/16 02:06:08;;;;;;;0.70;0.70;;;13.10;79.40;;;13.18;65.73;94284.94;5012324;28;20211;-79
2022/09/16 02:08:58;;;;;;;0.60;0.60;;;13.10;79.50;;;13.15;66.09;94285.38;4994638;28;20604;-79
2022/09/16 02:11:25;;;;;;;0.68;0.68;;;13.10;79.70;;;13.11;66.12;94280.56;4985563;28;20312;-80
2022/09/16 02:14:05;;;;;;;0.63;0.63;;;13.10;79.50;;;13.10;66.03;94278.94;4994907;28;20200;-80
2022/09/16 02:16:56;;;;;;;0.60;0.60;;;13.00;79.70;;;13.07;66.14;94286.47;5025299;28;20697;-79
2022/09/16 02:19:38;;;;;;;0.80;0.80;;;13.00;79.80;;;13.06;66.06;94285.69;4991948;28;20651;-80
2022/09/16 02:22:11;;;;;;;0.70;0.70;;;13.00;79.90;;;13.05;66.37;94280.63;5026938;28;20224;-80
2022/09/16 02:24:41;;;;;;;0.70;0.70;;;12.90;79.80;;;13.02;66.24;94273.19;5016550;28;20207;-80
2022/09/16 02:27:15;;;;;;;0.60;0.60;;;13.00;79.90;;;13.02;66.49;94273.19;5026827;28;20250;-79
2022/09/16 02:30:11;;;;;;;0.70;0.70;;;12.90;80.80;;;13.01;66.02;94268.94;5011430;28;20251;-80
2022/09/16 02:32:45;;;;;;;0.80;0.80;;;12.90;80.20;;;13.04;66.63;94260.63;5036656;28;20592;-80
2022/09/16 02:35:19;;;;;;;0.63;0.63;;;12.90;80.10;;;13.02;66.49;94258.19;5042464;28;20198;-79
2022/09/16 02:38:13;;;;;;;0.68;0.68;;;13.00;80.20;;;13.02;66.60;94257.41;5008817;28;20701;-79
2022/09/16 02:40:48;;;;;;;0.60;0.60;;;13.00;80.40;;;13.03;66.52;94262.44;5021095;28;20232;-79
2022/09/16 02:43:16;;;;;;;0.60;0.60;;;13.00;80.20;;;13.03;66.39;94264.28;5014076;28;20231;-80
2022/09/16 02:46:15;;;;;;;0.60;0.60;;;13.00;80.10;;;13.02;66.41;94263.44;5006689;28;20758;-79
2022/09/16 02:48:54;;;;;;;0.70;0.70;;;13.00;80.30;;;13.02;66.74;94257.41;5042415;28;20211;-80
2022/09/16 02:51:46;;;;;;;0.70;0.70;;;12.90;80.30;;;12.98;66.55;94257.81;5032408;28;20671;-80
2022/09/16 02:54:39;;;;;;;0.60;0.60;;;12.90;80.30;;;12.95;66.51;94253.03;5016431;28;20197;-80
2022/09/16 02:57:07;;;;;;;0.70;0.70;;;12.90;80.40;;;12.93;66.51;94247.16;5007824;28;20252;-80
2022/09/16 02:59:34;;;;;;;0.70;0.70;;;12.90;80.10;;;12.97;66.54;94256.25;5014296;28;20205;-80
2022/09/16 03:02:01;;;;;;;0.60;0.60;;;12.90;80.20;;;12.97;66.36;94258.06;5017099;28;20687;-81
2022/09/16 03:04:29;;;;;;;0.70;0.70;;;12.90;80.20;;;12.94;66.71;94248.00;5001190;28;20571;-80
2022/09/16 03:06:56;;;;;;;0.60;0.60;;;12.90;80.30;;;12.97;66.53;94244.91;5026553;28;20220;-81
2022/09/16 03:09:24;;;;;;;0.60;0.60;;;12.90;80.30;;;12.96;66.83;94246.75;5018395;28;20208;-80
2022/09/16 03:12:19;;;;;;;0.63;0.63;;;12.90;80.40;;;12.95;66.85;94245.13;5023782;28;20655;-80
2022/09/16 03:14:49;;;;;;;0.60;0.60;;;12.90;80.60;;;12.93;66.96;94244.53;5021248;28;20195;-80
2022/09/16 03:17:35;;;;;;;0.60;0.60;;;12.90;80.50;;;12.92;66.85;94239.50;5020291;28;20307;-79
2022/09/16 03:20:44;;;;;;;0.70;0.70;;;12.90;80.70;;;12.87;67.20;94234.91;4993813;28;20223;-80
2022/09/16 03:23:52;;;;;;;0.60;0.60;;;12.90;80.70;;;12.86;67.03;94233.28;5004977;28;20220;-79
2022/09/16 03:26:47;;;;;;;0.60;0.60;;;12.90;80.70;;;12.85;66.71;94229.06;5006778;28;20298;-80
2022/09/16 03:29:32;;;;;;;0.60;0.60;;;12.80;80.70;;;12.82;66.92;94225.03;5012629;28;20669;-80
2022/09/16 03:32:28;;;;;;;0.60;0.60;;;12.80;80.60;;;12.80;66.60;94218.41;5013204;28;20689;-80
2022/09/16 03:35:07;;;;;;;0.60;0.60;;;12.80;80.50;;;12.82;67.23;94221.63;5013317;28;20731;-81
2022/09/16 03:37:37;;;;;;;0.60;0.60;;;12.80;80.40;;;12.81;67.04;94226.06;5008004;28;20223;-80
2022/09/16 03:40:14;;;;;;;0.68;0.68;;;12.80;81.10;;;12.76;67.13;94219.88;5019150;28;20270;-80
2022/09/16 03:42:44;;;;;;;0.80;0.80;;;12.80;80.30;;;12.80;67.14;94221.84;5018976;28;20311;-79
2022/09/16 03:45:22;;;;;;;0.70;0.70;;;12.70;80.30;;;12.81;67.18;94225.28;5016222;28;20234;-80
2022/09/16 03:47:51;;;;;;;0.57;0.57;;;12.80;81.40;;;12.79;66.95;94220.25;5015320;28;20623;-81
2022/09/16 03:50:20;;;;;;;0.60;0.60;;;12.80;80.50;;;12.77;67.13;94213.59;5010116;28;20211;-80
2022/09/16 03:52:47;;;;;;;0.60;0.60;;;12.80;80.60;;;12.81;67.45;94220.78;5007364;28;20220;-80
2022/09/16 03:55:15;;;;;;;0.70;0.70;;;12.80;80.70;;;12.84;67.45;94224.84;5008731;28;20211;-80
2022/09/16 03:57:42;;;;;;;0.70;0.70;;;12.80;80.90;;;12.82;67.67;94217.16;5003289;28;20220;-80
2022/09/16 04:00:11;;;;;;;0.63;0.63;;;12.90;81.00;;;12.93;67.43;94217.44;5015656;28;20311;-79
2022/09/16 04:02:38;;;;;;;0.70;0.70;;;12.80;81.10;;;12.91;67.80;94215.00;5039520;28;20228;-80
2022/09/16 04:05:07;;;;;;;0.60;0.60;;;12.90;81.30;;;13.04;67.99;94215.88;4997108;28;20252;-81
2022/09/16 04:07:34;;;;;;;0.70;0.70;;;12.90;81.30;;;13.08;68.03;94215.16;4996804;28;20224;-81
2022/09/16 04:10:03;;;;;;;0.68;0.68;;;13.00;81.40;;;13.17;68.09;94214.84;5011456;28;20209;-80
2022/09/16 04:12:30;;;;;;;0.60;0.60;;;13.10;81.40;;;13.23;68.00;94208.69;5012821;28;20703;-80
2022/09/16 04:14:57;;;;;;;0.60;0.60;;;13.20;81.40;;;13.24;67.63;94205.03;5005602;28;20271;-82
2022/09/16 04:17:31;;;;;;;0.70;0.70;;;13.20;81.20;;;13.33;67.86;94208.13;5034469;28;20236;-81
2022/09/16 04:19:59;;;;;;;0.70;0.70;;;13.20;81.20;;;13.36;67.81;94218.22;4998446;28;20283;-80
2022/09/16 04:22:30;;;;;;;0.60;0.60;;;13.40;81.20;;;13.42;67.83;94218.16;5004143;28;20237;-81
2022/09/16 04:24:57;;;;;;;0.60;0.60;;;13.40;81.10;;;13.44;67.48;94212.66;5021604;28;20204;-80
2022/09/16 04:27:25;;;;;;;0.60;0.60;;;13.40;81.00;;;13.50;67.49;94208.31;5006111;28;20209;-79
2022/09/16 04:29:52;;;;;;;0.65;0.65;;;13.40;80.90;;;13.53;67.43;94205.22;5020591;28;20211;-81
2022/09/16 04:32:20;;;;;;;0.60;0.60;;;13.50;81.00;;;13.58;67.34;94213.25;5009852;28;20282;-80
2022/09/16 04:34:47;;;;;;;0.70;0.70;;;13.60;81.00;;;13.58;67.46;94213.25;4999570;28;20205;-80
2022/09/16 04:37:14;;;;;;;0.60;0.60;;;13.60;80.80;;;13.63;67.35;94218.63;5009272;28;20709;-82
2022/09/16 04:39:41;;;;;;;0.80;0.80;;;13.60;80.80;;;13.63;67.50;94225.75;5014923;28;20219;-82
2022/09/16 04:42:11;;;;;;;0.70;0.70;;;13.70;80.70;;;13.71;67.21;94228.06;5011398;28;20223;-81
2022/09/16 04:44:38;;;;;;;0.80;0.80;;;13.70;80.70;;;13.73;67.18;94210.16;5011647;28;20204;-81
2022/09/16 04:47:05;;;;;;;0.60;0.60;;;13.70;80.70;;;13.80;67.27;94215.34;5022620;28;20275;-82
2022/09/16 04:49:33;;;;;;;0.60;0.60;;;13.80;80.80;;;13.82;67.04;94208.81;5018058;28;20204;-81
2022/09/16 04:52:01;;;;;;;0.70;0.70;;;13.80;80.80;;;13.88;67.14;94215.00;5016181;28;20741;-81
2022/09/16 04:54:28;;;;;;;0.60;0.60;;;13.80;80.80;;;13.90;66.95;94216.38;4985521;28;20232;-81
2022/09/16 04:56:56;;;;;;;0.50;0.50;;;13.80;80.80;;;13.93;67.19;94223.00;4995777;28;20240;-82
2022/09/16 04:59:23;;;;;;;0.70;0.70;;;13.90;80.70;;;13.96;67.29;94224.38;5009993;28;20216;-81
2022/09/16 05:01:51;;;;;;;0.70;0.70;;;13.90;80.70;;;14.00;67.32;94228.16;5039490;28;20234;-80
2022/09/16 05:04:18;;;;;;;0.60;0.60;;;13.90;80.60;;;13.95;67.22;94218.28;5029582;28;20196;-81
2022/09/16 05:06:45;;;;;;;0.70;0.70;;;14.00;80.50;;;14.05;66.84;94228.28;5020281;28;20228;-82
2022/09/16 05:09:12;;;;;;;0.70;0.70;;;14.00;80.40;;;14.02;66.76;94231.38;5019471;28;20600;-82
2022/09/16 05:11:40;;;;;;;0.80;0.80;;;14.10;80.40;;;14.03;66.64;94231.13;5019307;28;20268;-82
2022/09/16 05:14:12;;;;;;;0.52;0.52;;;14.10;80.20;;;14.03;66.69;94241.69;5018916;28;20715;-82
2022/09/16 05:16:40;;;;;;;0.70;0.70;;;14.10;80.10;;;14.03;66.79;94228.50;4999027;28;20231;-82
2022/09/16 05:19:10;;;;;;;0.65;0.65;;;14.10;80.10;;;14.00;66.68;94236.06;5024563;28;20200;-81
2022/09/16 05:21:38;;;;;;;0.70;0.70;;;14.10;80.00;;;14.01;66.67;94235.03;5011862;28;20263;-83
2022/09/16 05:24:08;;;;;;;0.70;0.70;;;14.10;79.90;;;13.99;66.69;94230.00;5011562;28;20197;-81
2022/09/16 05:26:40;;;;;;;0.40;0.40;;;14.10;79.90;;;13.94;66.44;94219.34;5011494;28;20225;-82
2022/09/16 05:29:15;;;;;;;0.60;0.60;;;14.00;79.90;;;13.96;66.38;94225.19;4995616;28;20204;-82
2022/09/16 05:31:46;;;;;;;0.60;0.60;;;14.00;80.70;;;13.97;66.43;94218.09;5027082;28;20230;-81
2022/09/16 05:34:17;;;;;;;0.50;0.50;;;14.00;80.00;;;13.97;66.61;94223.38;5005696;28;20299;-82
2022/09/16 05:36:47;;;;;;;0.80;0.80;;;14.00;80.00;;;13.93;66.92;94215.91;5008254;28;20706;-82
2022/09/16 05:39:18;;;;;;;0.65;0.65;;;14.00;80.00;;;13.98;66.56;94214.41;5018220;28;20193;-81
2022/09/16 05:41:59;;;;;;;0.70;0.70;;;14.00;80.10;;;13.99;66.97;94214.19;5029204;28;20263;-81
2022/09/16 05:44:27;;;;;;;0.70;0.70;;;14.10;80.20;;;14.04;66.88;94216.13;5009830;28;20219;-81
2022/09/16 05:46:55;;;;;;;0.70;0.70;;;14.10;80.30;;;14.11;67.10;94208.91;5022158;28;20231;-82
2022/09/16 05:49:22;;;;;;;0.60;0.60;;;14.10;80.40;;;14.19;67.20;94202.47;4994456;28;20209;-81
2022/09/16 05:51:50;;;;;;;0.80;0.80;;;14.20;80.60;;;14.29;67.25;94196.59;5014783;28;20334;-82
2022/09/16 05:54:18;;;;;;;0.60;0.60;;;14.30;80.60;;;14.35;67.24;94195.69;5013774;28;20204;-81
2022/09/16 05:56:46;;;;;;;0.65;0.65;;;14.30;80.60;;;14.46;67.24;94194.03;5030256;28;20215;-82
2022/09/16 05:59:15;;;;;;;0.60;0.60;;;14.40;80.70;;;14.54;67.02;94189.19;5044371;28;20207;-82
2022/09/16 06:01:43;;;;;;;0.77;0.77;;;14.50;80.70;;;14.63;67.14;94188.84;4995447;28;20267;-81
2022/09/16 06:04:13;;;;;;;0.73;0.73;;;14.60;80.70;;;14.69;66.92;94180.78;5013041;28;20201;-81
2022/09/16 06:06:43;;;;;;;0.60;0.60;;;14.70;80.60;;;14.78;66.68;94181.25;5004707;28;20273;-80
2022/09/16 06:09:21;;;;;;;0.60;0.60;;;14.80;80.60;;;14.89;66.48;94184.84;5017317;28;20204;-81
2022/09/16 06:11:51;;;;;;;0.70;0.70;;;14.90;80.00;;;14.94;66.83;94187.59;5006956;28;20240;-80
2022/09/16 06:14:23;;;;;;;0.60;0.60;;;14.90;80.40;;;15.07;67.03;94188.34;5010890;28;20222;-81
2022/09/16 06:16:50;;;;;;;0.63;0.63;;;15.10;80.60;;;15.09;66.69;94179.13;5009635;28;20259;-81
2022/09/16 06:19:19;;;;;;;0.60;0.60;;;15.20;80.60;;;15.28;67.29;94187.66;5019850;28;20208;-80
2022/09/16 06:21:46;;;;;;;0.60;0.60;;;15.30;80.50;;;15.34;66.62;94178.78;4997796;28;20323;-81
2022/09/16 06:24:16;;;;;;;0.60;0.60;;;15.40;80.20;;;15.46;66.44;94183.97;5012556;28;20634;-81
2022/09/16 06:26:45;;;;;;;0.70;0.70;;;15.50;79.90;;;15.55;66.10;94180.91;4995254;28;20232;-81
2022/09/16 06:29:14;;;;;;;0.50;0.50;;;15.50;79.90;;;15.60;65.52;94188.91;5009041;28;20209;-81
2022/09/16 06:31:42;;;;;;;0.60;0.60;;;15.60;79.70;;;15.61;66.12;94175.50;5006960;28;20214;-80
2022/09/16 06:34:19;;;;;;;0.60;0.60;;;15.70;79.90;;;15.79;66.42;94184.97;5014923;28;20204;-81
2022/09/16 06:36:47;;;;;;;0.60;0.60;;;15.80;79.70;;;15.90;66.07;94180.69;5034924;28;20221;-81
2022/09/16 06:39:16;;;;;;;0.60;0.60;;;15.90;80.20;;;16.02;66.16;94170.00;5017667;28;20204;-81
2022/09/16 06:41:43;;;;;;;0.50;0.50;;;16.00;80.20;;;16.15;66.40;94184.72;4996863;28;20733;-80
2022/09/16 06:44:10;;;;;;;0.52;0.52;;;16.10;80.00;;;16.20;65.42;94181.34;5013502;28;20232;-81
2022/09/16 06:46:37;;;;;;;0.50;0.50;;;16.20;79.80;;;16.27;65.69;94184.59;5030067;28;20312;-82
2022/09/16 06:49:04;;;;;;;0.50;0.50;;;16.20;79.40;;;16.30;65.16;94181.47;5025712;28;20319;-82
2022/09/16 06:51:33;;;;;;;0.60;0.60;;;16.40;79.20;;;16.34;65.52;94177.28;5033320;28;20302;-83
2022/09/16 06:54:05;;;;;;;0.60;0.60;;;16.40;79.10;;;16.36;65.38;94167.25;5012762;28;20266;-81
2022/09/16 06:56:36;;;;;;;0.60;0.60;;;16.40;79.20;;;16.43;65.09;94175.00;5005291;28;20228;-82
2022/09/16 06:59:04;;;;;;;0.50;0.50;;;16.50;79.20;;;16.51;65.59;94176.44;4998842;28;20295;-78
2022/09/16 07:01:32;;;;;;;0.50;0.50;;;16.60;79.30;;;16.61;65.35;94185.31;5014268;28;20435;-79
2022/09/16 07:04:05;;;;;;;0.50;0.50;;;16.70;79.40;;;16.69;65.36;94175.31;5032352;28;20650;-80
2022/09/16 07:06:33;;;;;;;0.50;0.50;;;16.70;79.40;;;16.78;64.97;94185.22;5037701;28;20319;-80
2022/09/16 07:09:21;;;;;;;0.60;0.60;;;16.80;79.40;;;16.86;64.31;94194.56;5013199;28;20196;-81
2022/09/16 07:11:48;;;;;;;0.70;0.70;;;17.00;79.10;;;16.94;64.60;94191.50;5034049;28;20220;-81
2022/09/16 07:14:14;;;;;;;0.50;0.50;;;17.00;78.80;;;17.01;64.47;94195.81;5023836;28;20705;-80
2022/09/16 07:16:42;;;;;;;0.60;0.60;;;17.10;78.70;;;17.10;64.26;94194.28;5020201;28;20235;-80
2022/09/16 07:19:09;;;;;;;0.50;0.50;;;17.20;78.80;;;17.16;64.57;94185.34;5011851;28;20208;-80
2022/09/16 07:21:37;;;;;;;0.50;0.50;;;17.30;78.40;;;17.21;64.00;94188.06;5014274;28;20643;-81
2022/09/16 07:24:04;;;;;;;0.57;0.57;;;17.30;78.00;;;17.22;63.57;94191.50;5015196;28;20261;-81
2022/09/16 07:26:36;;;;;;;0.50;0.50;;;17.40;77.90;;;17.23;63.68;94191.25;5021937;28;20213;-81
2022/09/16 07:29:06;;;;;;;0.52;0.52;;;17.40;77.70;;;17.26;63.66;94188.09;5008907;28;20193;-82
2022/09/16 07:31:36;;;;;;;0.60;0.60;;;17.40;78.10;;;17.33;64.27;94200.34;5013579;28;20235;-81
2022/09/16 07:34:07;;;;;;;0.50;0.50;;;17.50;78.20;;;17.35;63.90;94193.72;5022903;28;20715;-82
2022/09/16 07:36:39;;;;;;;0.55;0.55;;;17.50;78.00;;;17.35;64.09;94191.09;5012078;28;20236;-82
2022/09/16 07:39:07;;;;;;;0.55;0.55;;;17.50;77.80;;;17.46;63.70;94204.44;5012351;28;20815;-81
2022/09/16 07:41:38;;;;;;;0.50;0.50;;;17.60;78.10;;;17.50;64.08;94203.66;5011716;28;20274;-82
2022/09/16 07:44:08;;;;;;;0.50;0.50;;;17.60;78.10;;;17.51;63.85;94217.75;5013502;28;20203;-82
2022/09/16 07:46:36;;;;;;;0.50;0.50;;;17.60;78.00;;;17.47;63.26;94214.78;4996970;28;20590;-82
2022/09/16 07:49:06;;;;;;;0.60;0.60;;;17.70;77.60;;;17.43;63.02;94209.19;5013217;28;20200;-81
2022/09/16 07:51:34;;;;;;;0.50;0.50;;;17.60;77.00;;;17.36;63.43;94213.09;4995626;28;20216;-82
2022/09/16 07:54:05;;;;;;;0.50;0.50;;;17.60;77.10;;;17.28;62.37;94225.75;5011587;28;20638;-81
2022/09/16 07:56:36;;;;;;;0.60;0.60;;;17.60;76.90;;;17.24;63.14;94224.66;5001221;28;20615;-81
2022/09/16 07:59:06;;;;;;;0.55;0.55;;;17.50;76.80;;;17.17;62.50;94228.56;5011811;28;20200;-82
2022/09/16 08:01:33;;;;;;;0.50;0.50;;;17.40;76.70;;;17.07;62.51;94226.59;5012295;28;20766;-81
2022/09/16 08:04:01;;;;;;;0.60;0.60;;;17.40;76.80;;;16.98;63.00;94217.47;5012746;28;20200;-80
2022/09/16 08:06:31;;;;;;;0.60;0.60;;;17.30;76.80;;;16.92;63.23;94225.38;5023293;28;20224;-81
2022/09/16 08:09:01;;;;;;;0.60;0.60;;;17.20;76.70;;;16.84;62.78;94232.94;5033013;28;20214;-81
2022/09/16 08:11:47;;;;;;;0.60;0.60;;;17.10;76.80;;;16.70;62.55;94229.84;5019349;28;20208;-82
2022/09/16 08:14:14;;;;;;;0.50;0.50;;;17.00;76.70;;;16.60;62.95;94226.06;5049053;28;20710;-81
2022/09/16 08:16:41;;;;;;;0.60;0.60;;;16.90;77.00;;;16.48;62.93;94220.09;5032731;28;20211;-83
2022/09/16 08:19:08;;;;;;;0.70;0.70;;;16.80;76.90;;;16.39;63.33;94224.19;5016521;28;20223;-81
2022/09/16 08:21:35;;;;;;;0.70;0.70;;;16.70;77.10;;;16.28;63.54;94236.47;5031514;28;20228;-81
2022/09/16 08:24:03;;;;;;;0.50;0.50;;;16.60;77.20;;;16.22;63.43;94232.16;5049429;28;20196;-81
2022/09/16 08:26:29;;;;;;;0.57;0.57;;;16.50;77.30;;;16.17;63.54;94225.78;4999613;28;20311;-81
2022/09/16 08:28:57;;;;;;;0.60;0.60;;;16.50;77.70;;;16.22;63.81;94232.16;5032938;28;20207;-81
2022/09/16 08:31:36;;;;;;;0.50;0.50;;;16.40;77.80;;;16.19;63.88;94230.81;5026302;28;20224;-82
2022/09/16 08:34:04;;;;;;;0.55;0.55;;;16.40;77.90;;;16.26;64.56;94226.16;5017910;28;20295;-82
2022/09/16 08:36:32;;;;;;;0.60;0.60;;;16.40;78.70;;;16.32;64.83;94217.22;4994695;28;20661;-83
2022/09/16 08:39:00;;;;;;;0.50;0.50;;;16.40;79.20;;;16.42;64.83;94226.34;5022083;28;20220;-82
2022/09/16 08:41:47;;;;;;;0.52;0.52;;;16.40;79.10;;;16.55;64.50;94220.69;5012479;28;20228;-82
2022/09/16 08:44:41;;;;;;;0.50;0.50;;;16.60;79.20;;;16.70;64.96;94221.91;5042277;28;20223;-82
2022/09/16 08:47:35;;;;;;;0.50;0.50;;;16.70;79.40;;;16.85;64.90;94214.16;5045096;28;20587;-82
2022/09/16 08:50:11;;;;;;;0.50;0.50;;;16.90;79.50;;;17.01;65.39;94201.09;5017538;28;20271;-82
2022/09/16 08:52:39;;;;;;;0.60;0.60;;;17.00;79.60;;;17.18;64.40;94207.09;5009850;28;20231;-81
2022/09/16 08:55:30;;;;;;;0.60;0.60;;;17.20;79.20;;;17.40;64.40;94219.50;4994281;28;20255;-82
2022/09/16 08:58:16;;;;;;;0.50;0.50;;;17.40;79.00;;;17.58;63.82;94221.78;5019027;28;20212;-81
2022/09/16 09:00:48;;;;;;;0.52;0.52;;;17.60;78.20;;;17.73;62.31;94230.91;4995241;28;20251;-81
2022/09/16 09:03:36;;;;;;;0.50;0.50;;;17.80;77.40;;;17.79;61.47;94223.78;5028054;28;20694;-81
2022/09/16 09:06:53;;;;;;;0.60;0.60;;;18.00;76.60;;;17.83;61.47;94228.31;5028372;28;20208;-81
2022/09/16 09:10:05;;;;;;;0.57;0.57;;;18.10;75.80;;;17.81;60.80;94216.38;5012044;28;20205;-81
2022/09/16 09:12:44;;;;;;;0.50;0.50;;;18.20;75.70;;;17.84;60.68;94221.97;5007434;28;20231;-81
2022/09/16 09:15:37;;;;;;;0.55;0.55;;;18.20;75.10;;;17.85;60.81;94220.91;5028112;28;20200;-81
2022/09/16 09:18:19;;;;;;;0.50;0.50;;;18.20;75.20;;;17.84;61.18;94218.53;5024393;28;20236;-81
2022/09/16 09:21:14;;;;;;;0.50;0.50;;;18.20;75.20;;;17.84;61.03;94227.28;5018929;28;21586;-81
2022/09/16 09:24:11;;;;;;;0.50;0.50;;;18.20;74.30;;;17.91;61.22;94221.75;4989310;28;20444;-81
2022/09/16 09:26:51;;;;;;;0.50;0.50;;;18.20;75.40;;;17.97;61.52;94228.72;5010180;28;20216;-81
2022/09/16 09:29:47;;;;;;;0.50;0.50;;;18.20;75.70;;;18.04;61.61;94218.69;5013005;28;20207;-79
2022/09/16 09:32:36;;;;;;;0.50;0.50;;;18.30;75.80;;;18.16;61.28;94215.03;5011786;28;20266;-81
2022/09/16 09:35:26;;;;;;;0.50;0.50;;;18.30;76.00;;;18.21;61.31;94223.03;5011147;28;20197;-82
2022/09/16 09:38:13;;;;;;;0.50;0.50;;;18.40;75.50;;;18.20;61.25;94208.97;5004071;28;20224;-81
2022/09/16 09:40:57;;;;;;;0.50;0.50;;;18.40;75.30;;;18.16;60.96;94197.28;5011519;28;20284;-80
2022/09/16 09:43:31;;;;;;;0.50;0.50;;;18.40;75.20;;;18.20;61.07;94210.81;5011272;28;20228;-80
2022/09/16 09:46:06;;;;;;;0.60;0.60;;;18.40;75.80;;;18.27;61.65;94208.72;5016825;28;20209;-81
2022/09/16 09:48:52;;;;;;;0.50;0.50;;;18.40;76.20;;;18.36;61.84;94193.91;5011643;28;20663;-82
2022/09/16 09:51:48;;;;;;;0.60;0.60;;;18.40;75.80;;;18.54;62.02;94182.06;5011398;28;20228;-81
2022/09/16 09:54:24;;;;;;;0.50;0.50;;;18.50;76.50;;;18.75;62.47;94179.47;5015465;28;20200;-81
2022/09/16 09:57:21;;;;;;;0.50;0.50;;;18.70;76.90;;;18.94;62.21;94169.16;5021644;28;20310;-81
2022/09/16 10:00:12;;;;;;;0.50;0.50;;;18.90;76.50;;;19.13;62.46;94160.72;5033313;28;20840;-81
2022/09/16 10:02:42;;;;;;;0.50;0.50;;;19.10;76.30;;;19.33;61.96;94160.75;5014706;28;20282;-80
2022/09/16 10:05:24;;;;;;;0.43;0.43;;;19.30;76.80;;;19.47;61.53;94166.31;4993546;28;20201;-80
2022/09/16 10:07:56;;;;;;;0.47;0.47;;;19.50;76.80;;;19.58;61.21;94163.66;4996172;28;20232;-80
2022/09/16 10:10:26;;;;;;;0.30;0.30;;;19.60;75.90;;;19.63;60.80;94156.47;5030295;28;20187;-81
2022/09/16 10:12:53;;;;;;;0.40;0.40;;;19.80;76.00;;;19.74;60.76;94164.44;5016838;28;20233;-80
2022/09/16 10:15:30;;;;;;;0.50;0.50;;;19.90;75.80;;;19.75;59.01;94166.03;4994442;28;20193;-80
2022/09/16 10:18:01;;;;;;;0.47;0.47;;;20.00;74.40;;;19.72;58.57;94159.38;5007242;28;20228;-81
2022/09/16 10:20:34;;;;;;;0.50;0.50;;;20.10;73.60;;;19.62;57.38;94162.84;5001204;28;20462;-80
2022/09/16 10:23:21;;;;;;;0.60;0.60;;;20.10;72.30;;;19.52;58.05;94168.97;5027538;28;20232;-81
2022/09/16 10:26:17;;;;;;;0.57;0.57;;;20.00;72.70;;;19.41;57.74;94164.72;5024129;28;20204;-79
2022/09/16 10:29:18;;;;;;;0.40;0.40;;;20.00;72.10;;;19.38;57.15;94146.63;5029728;28;20197;-80
2022/09/16 10:31:46;;;;;;;0.50;0.50;;;19.90;72.60;;;19.43;58.25;94135.19;4984690;28;20270;-80
2022/09/16 10:34:33;;;;;;;0.50;0.50;;;19.90;72.80;;;19.49;58.62;94142.09;5014393;28;20212;-81
2022/09/16 10:37:16;;;;;;;0.50;0.50;;;19.90;72.40;;;19.48;57.70;94148.50;5009698;28;20243;-80
2022/09/16 10:39:50;;;;;;;0.50;0.50;;;19.90;72.10;;;19.48;57.85;94135.19;4994732;28;20189;-80
2022/09/16 10:42:19;;;;;;;0.47;0.47;;;19.90;72.20;;;19.51;58.56;94134.66;5012198;28;20716;-81
2022/09/16 10:44:50;;;;;;;0.60;0.60;;;19.80;72.70;;;19.52;58.15;94142.38;5030716;28;20215;-80
2022/09/16 10:47:23;;;;;;;0.47;0.47;;;19.90;72.60;;;19.54;58.13;94144.75;5014561;28;20220;-81
2022/09/16 10:49:55;;;;;;;0.50;0.50;;;19.90;72.60;;;19.59;58.25;94151.94;5031174;28;20199;-79
2022/09/16 10:52:29;;;;;;;0.50;0.50;;;19.90;72.60;;;19.68;57.95;94156.47;5014398;28;20303;-79